Guadalajara, Mexico

2:01 PM CDT on September 01, 2015 (GMT -0500)
Don Miguel Hidalgo International | | Change Station
CLOSE
Current Station
Airport
Location: Guadalajara Don Miguel,
Elevation: 5013 ft
Nearby Weather Stations

Elev 5013 ft 20.52 °N, 103.31 °W | Updated 15 minutes ago

Mostly Cloudy
Mostly Cloudy
77 °F
Feels Like 77 °F
N
5
Wind Variable Wind from NNE

Today
High -- | Low -- °F
--% Chance of Precip.
Yesterday
High -- | Low -- °F
Precip. -- in
7:37 AM 8:09 PM
Waning Gibbous, 87% visible
Pressure 30.20 in
Visibility 7.0 miles
Clouds Mostly Cloudy 2500 ft
Mostly Cloudy 10000 ft
Dew Point 61 °F
Humidity 57%
Rainfall 0.00 in
Snow Depth Not available.
UV 7 out of 12
Pollen Not available.
Air Quality Not available.
Flu Activity Not available.
METAR MMGL 011846Z 03004KT 7SM BKN025TCU BKN100 25/16 A3020 RMK 8/270 HZY
Pressure 30.20 in
Visibility 7.0 miles
Clouds Mostly Cloudy 2500 ft
Mostly Cloudy 10000 ft
Dew Point 61 °F
Humidity 57%
Rainfall 0.00 in
Snow Depth Not available.
UV 7 out of 12
Pollen Not available.
Air Quality Not available.
Flu Activity Not available.
METAR MMGL 011846Z 03004KT 7SM BKN025TCU BKN100 25/16 A3020 RMK 8/270 HZY

10-Day Weather Forecast

×

Almanac

Astronomy

Sep. 01, 2015 Rise Set
Actual Time
Civil Twilight
Nautical Twilight
Astronomical Twilight
Moon
Length of Visible Light
Length of Day
Tomorrow will be .
, % of the Moon is Illuminated

Today's Extremes

Country Highs Country Lows

Community

WunderPhotos

Upload Photos

1,851,596 photos uploaded!

WunderBlogs® & News

Nearby

Air Quality

  Air Quality AQ Index Pollutant
Not available.

Snow Depth

Station Depth Elevation

Earthquake Activity

City Distance Mag. Time & Date
Minimum magnitude displayed is 2.5.

Coastal Water Temperatures

Place Temperature

Stations

Nearby Weather Stations

Station Location Temp. Windchill Dew Point Humidity Wind Precip. Elev Updated Type